Time;durP1;ratioP1;P1;durP2;ratioP2;P2;SDS_P1;SDS_P2;PMS_P1;PMS_P2;Temp;Humidity;BMP_temperature;BMP_pressure;BME280_temperature;BME280_humidity;BME280_pressure;Samples;Min_cycle;Max_cycle;Signal;HPM_P1;HPM_P2
2022/06/26 00:00:20;;;;;;;3.00;2.70;;;;;;;20.23;70.53;156564.69;5028333;28;20468;-80
2022/06/26 00:02:47;;;;;;;3.70;3.40;;;;;;;20.16;71.71;156546.44;5010112;28;20855;-80
2022/06/26 00:05:14;;;;;;;3.37;3.07;;;;;;;20.13;71.27;156538.63;5011276;28;20484;-80
2022/06/26 00:07:40;;;;;;;3.80;3.50;;;;;;;20.07;71.00;156522.94;5023621;28;20857;-80
2022/06/26 00:10:08;;;;;;;3.63;3.33;;;;;;;20.03;73.08;156513.88;5025873;28;20448;-80
2022/06/26 00:12:35;;;;;;;3.70;3.40;;;;;;;19.97;73.15;156498.19;5010135;28;20460;-80
2022/06/26 00:15:02;;;;;;;5.03;3.57;;;;;;;19.90;73.03;156478.66;5016431;28;20499;-80
2022/06/26 00:17:30;;;;;;;3.77;3.47;;;;;;;19.85;76.31;156465.63;5014975;28;20473;-81
2022/06/26 00:19:57;;;;;;;4.30;3.90;;;;;;;19.88;74.24;156473.44;5013432;28;20959;-80
2022/06/26 00:22:24;;;;;;;3.87;3.30;;;;;;;19.86;75.29;156468.19;5010856;28;20539;-80
2022/06/26 00:24:51;;;;;;;4.07;3.77;;;;;;;19.85;75.37;156465.63;5008709;28;20448;-80
2022/06/26 00:27:17;;;;;;;3.50;3.20;;;;;;;19.86;76.85;156468.19;5009096;28;20484;-81
2022/06/26 00:29:44;;;;;;;3.93;3.50;;;;;;;19.85;77.28;156465.63;5009882;28;20514;-80
2022/06/26 00:32:10;;;;;;;3.90;3.60;;;;;;;19.85;76.33;156465.63;5015402;28;20955;-81
2022/06/26 00:34:39;;;;;;;4.93;3.80;;;;;;;19.82;76.20;156457.78;4972118;28;1111257;-80
2022/06/26 00:37:05;;;;;;;4.03;3.63;;;;;;;19.86;79.25;156468.19;5012206;28;20314;-81
2022/06/26 00:39:32;;;;;;;4.60;4.20;;;;;;;19.84;78.74;156463.00;4995388;28;20488;-80
2022/06/26 00:41:59;;;;;;;4.07;3.77;;;;;;;19.73;77.39;156434.28;5011644;28;20821;-80
2022/06/26 00:44:26;;;;;;;3.70;3.40;;;;;;;19.71;77.78;156429.09;5011214;28;20555;-81
2022/06/26 00:46:53;;;;;;;3.20;2.90;;;;;;;19.68;78.26;156422.56;5010354;28;20457;-80
2022/06/26 00:49:21;;;;;;;3.40;3.10;;;;;;;19.80;75.69;156452.59;5010659;28;20478;-80
2022/06/26 00:51:51;;;;;;;2.97;2.77;;;;;;;19.84;76.54;156463.00;5012627;28;20605;-80
2022/06/26 00:54:20;;;;;;;3.27;2.90;;;;;;;19.79;78.39;156451.28;5010485;28;20559;-74
2022/06/26 00:56:46;;;;;;;2.90;2.60;;;;;;;19.80;75.75;156452.59;5010615;28;20478;-74
2022/06/26 00:59:14;;;;;;;3.27;2.90;;;;;;;19.84;75.73;156463.00;5010998;28;20880;-74
2022/06/26 01:01:41;;;;;;;3.20;2.53;;;;;;;19.85;76.14;156466.94;5010940;28;20500;-74
2022/06/26 01:04:07;;;;;;;2.70;2.50;;;;;;;19.88;75.29;156473.44;5011641;28;21103;-74
2022/06/26 01:06:35;;;;;;;2.77;2.57;;;;;;;19.90;77.30;156478.66;5009381;28;20990;-74
2022/06/26 01:09:04;;;;;;;3.00;2.73;;;;;;;19.89;76.17;156476.03;5008378;28;20848;-74
2022/06/26 01:11:31;;;;;;;3.30;3.00;;;;;;;19.90;78.74;156478.66;5025962;28;20448;-75
2022/06/26 01:14:00;;;;;;;2.83;2.63;;;;;;;19.86;79.03;156469.50;5025984;28;20460;-74
2022/06/26 01:16:26;;;;;;;3.20;2.73;;;;;;;19.80;77.73;156452.59;5008517;28;20842;-74
2022/06/26 01:18:56;;;;;;;2.53;2.33;;;;;;;19.80;78.39;156452.59;5026721;28;20457;-74
2022/06/26 01:21:24;;;;;;;3.00;2.70;;;;;;;19.84;78.31;156464.31;4995577;28;20942;-74
2022/06/26 01:23:53;;;;;;;3.37;3.10;;;;;;;19.86;79.07;156468.19;5026264;28;20460;-75
2022/06/26 01:26:21;;;;;;;3.17;2.97;;;;;;;19.88;77.07;156474.69;5010486;28;20449;-74
2022/06/26 01:28:48;;;;;;;2.87;2.67;;;;;;;19.90;77.90;156479.97;5011374;28;20456;-74
2022/06/26 01:31:15;;;;;;;2.80;2.60;;;;;;;19.93;77.30;156487.78;5026743;28;20457;-74
2022/06/26 01:33:42;;;;;;;3.20;2.90;;;;;;;19.94;77.99;156489.06;5011499;28;20457;-74
2022/06/26 01:36:09;;;;;;;3.10;2.90;;;;;;;19.96;77.24;156494.31;5026142;28;20543;-74
2022/06/26 01:38:37;;;;;;;4.47;2.63;;;;;;;19.92;77.85;156485.16;5010033;28;20483;-74
2022/06/26 01:41:05;;;;;;;3.30;2.80;;;;;;;19.92;79.01;156485.16;5014908;28;20447;-74
2022/06/26 01:43:33;;;;;;;3.30;2.40;;;;;;;19.93;76.69;156486.47;5008588;28;20576;-74
2022/06/26 01:46:01;;;;;;;3.67;3.10;;;;;;;19.92;76.98;156483.84;5011434;28;20957;-74
2022/06/26 01:48:32;;;;;;;2.90;2.70;;;;;;;20.17;74.60;156549.06;5011117;28;20456;-74
2022/06/26 01:51:01;;;;;;;2.90;2.70;;;;;;;20.20;75.86;156556.84;5007912;28;20448;-74
2022/06/26 01:53:30;;;;;;;3.03;2.83;;;;;;;20.10;79.13;156530.78;5023779;28;20770;-74
2022/06/26 01:55:56;;;;;;;3.67;2.60;;;;;;;20.06;78.25;156520.38;5026514;28;20461;-74
2022/06/26 01:58:36;;;;;;;3.10;2.77;;;;;;;20.08;75.71;156524.25;5024424;28;20488;-80
2022/06/26 02:01:05;;;;;;;2.90;2.70;;;;;;;20.02;76.49;156509.91;4993637;28;20511;-80
2022/06/26 02:03:32;;;;;;;3.03;2.83;;;;;;;20.01;79.33;156507.34;5009421;28;20702;-80
2022/06/26 02:05:59;;;;;;;2.80;2.50;;;;;;;19.97;76.87;156498.19;5024436;28;20942;-80
2022/06/26 02:08:25;;;;;;;2.90;2.70;;;;;;;19.96;78.80;156494.31;5024912;28;20511;-80
2022/06/26 02:13:40;;;;;;;5.47;2.90;;;;;;;19.91;77.17;156481.22;5010936;28;20460;-80
2022/06/26 02:16:11;;;;;;;3.10;2.80;;;;;;;19.91;79.89;156482.53;5033384;28;20809;-80
2022/06/26 02:18:39;;;;;;;4.13;2.73;;;;;;;19.89;77.95;156476.03;5010435;28;20487;-80
2022/06/26 02:21:07;;;;;;;2.53;2.33;;;;;;;19.84;78.47;156463.00;5025667;28;20491;-80
2022/06/26 02:23:35;;;;;;;3.00;2.70;;;;;;;19.84;77.47;156463.00;5008490;28;20472;-80
2022/06/26 02:26:02;;;;;;;3.10;2.80;;;;;;;19.86;78.17;156468.19;5026111;28;20491;-80
2022/06/26 02:28:29;;;;;;;3.43;2.83;;;;;;;19.88;78.66;156474.69;5008538;28;20457;-81
2022/06/26 02:30:59;;;;;;;3.60;3.30;;;;;;;19.84;79.43;156463.00;5025279;28;21000;-82
2022/06/26 02:33:28;;;;;;;3.03;2.83;;;;;;;19.78;79.16;156447.31;4995163;28;20459;-82
2022/06/26 02:35:55;;;;;;;3.80;2.80;;;;;;;19.77;78.85;156444.75;5010574;28;20483;-82
2022/06/26 02:38:23;;;;;;;3.50;3.20;;;;;;;19.74;80.02;156436.91;5010362;28;20848;-81
2022/06/26 02:40:50;;;;;;;3.13;2.93;;;;;;;19.73;80.74;156434.28;5007431;28;20507;-81
2022/06/26 02:43:18;;;;;;;3.20;2.90;;;;;;;19.66;81.83;156416.06;5007698;28;20468;-81
2022/06/26 02:45:45;;;;;;;3.37;3.07;;;;;;;19.58;83.61;156395.19;5002393;28;20471;-82
2022/06/26 02:48:13;;;;;;;2.77;2.57;;;;;;;19.56;82.00;156390.00;5026288;28;20449;-82
2022/06/26 02:50:40;;;;;;;3.40;3.00;;;;;;;19.59;81.69;156399.09;5026008;28;20437;-80
2022/06/26 02:53:09;;;;;;;3.90;3.20;;;;;;;19.54;84.86;156384.78;4992327;28;20529;-80
2022/06/26 02:55:36;;;;;;;4.00;2.80;;;;;;;19.48;83.84;156370.44;4991849;28;20936;-81
2022/06/26 02:58:03;;;;;;;2.73;2.53;;;;;;;19.46;82.67;156363.94;4991988;28;20739;-81
2022/06/26 03:00:36;;;;;;;4.10;2.77;;;;;;;19.43;82.64;156358.69;4993602;28;20548;-81
2022/06/26 03:03:04;;;;;;;3.10;2.80;;;;;;;19.42;83.71;156356.09;5026870;28;20463;-82
2022/06/26 03:05:32;;;;;;;3.17;2.97;;;;;;;19.39;83.14;156348.28;5003849;28;20446;-81
2022/06/26 03:07:59;;;;;;;4.47;3.20;;;;;;;19.40;82.79;156350.91;4993450;28;20451;-81
2022/06/26 03:10:26;;;;;;;3.90;3.20;;;;;;;19.37;83.21;156343.06;4993408;28;20449;-81
2022/06/26 03:12:53;;;;;;;2.77;2.57;;;;;;;19.36;82.93;156340.41;5023660;28;20461;-80
2022/06/26 03:15:20;;;;;;;3.03;2.73;;;;;;;19.36;82.67;156339.09;5025131;28;20970;-80
2022/06/26 03:17:50;;;;;;;3.07;2.77;;;;;;;19.33;82.91;156332.56;4998848;28;20473;-79
2022/06/26 03:20:19;;;;;;;3.33;2.60;;;;;;;19.38;81.74;156345.66;4999438;28;20523;-80
2022/06/26 03:22:47;;;;;;;2.70;2.50;;;;;;;19.52;81.17;156379.53;5008310;28;21007;-81
2022/06/26 03:25:16;;;;;;;3.03;2.83;;;;;;;19.53;81.30;156382.16;4991385;28;20453;-80
2022/06/26 03:27:43;;;;;;;3.40;3.10;;;;;;;19.46;81.68;156365.19;5011268;28;20511;-80
2022/06/26 03:30:11;;;;;;;3.10;2.80;;;;;;;19.43;83.42;156358.69;4995555;28;20460;-80
2022/06/26 03:32:42;;;;;;;2.77;2.57;;;;;;;19.36;83.60;156340.41;5015703;28;20469;-80
2022/06/26 03:35:11;;;;;;;3.00;2.70;;;;;;;19.37;83.17;156343.06;5008782;28;20472;-74
2022/06/26 03:37:38;;;;;;;3.40;3.00;;;;;;;19.33;83.00;156332.56;5012140;28;20476;-74
2022/06/26 03:40:09;;;;;;;2.87;2.67;;;;;;;19.35;82.34;156336.50;5014288;28;20527;-74
2022/06/26 03:42:37;;;;;;;2.73;2.53;;;;;;;19.29;82.03;156322.16;5014613;28;20440;-74
2022/06/26 03:45:05;;;;;;;3.20;2.90;;;;;;;19.29;84.21;156320.84;4996075;28;20460;-74
2022/06/26 03:47:33;;;;;;;3.23;3.00;;;;;;;19.27;83.27;156315.66;5028998;28;20538;-74
2022/06/26 03:50:00;;;;;;;3.70;2.80;;;;;;;19.26;85.59;156314.34;5029090;28;20456;-74
2022/06/26 03:52:27;;;;;;;3.10;2.90;;;;;;;19.22;85.53;156303.88;5018582;28;20843;-74
2022/06/26 03:54:58;;;;;;;2.93;2.50;;;;;;;19.24;84.56;156309.13;5010041;28;20456;-74
2022/06/26 03:57:26;;;;;;;2.80;2.60;;;;;;;19.26;84.28;156314.34;5027141;28;20476;-74
2022/06/26 03:59:56;;;;;;;2.87;2.67;;;;;;;19.28;85.88;156318.22;5011617;28;20463;-74
2022/06/26 04:02:45;;;;;;;3.20;2.90;;;;;;;19.30;84.81;156324.75;5009316;28;20437;-73
2022/06/26 04:05:18;;;;;;;3.40;3.00;;;;;;;19.35;84.36;156336.50;5010685;28;20463;-73
2022/06/26 04:07:45;;;;;;;3.87;2.50;;;;;;;19.42;84.53;156356.09;5024359;28;20492;-74
2022/06/26 04:10:18;;;;;;;2.70;2.50;;;;;;;19.58;83.42;156395.19;5012827;28;20452;-74
2022/06/26 04:12:46;;;;;;;2.70;2.50;;;;;;;19.80;81.88;156453.84;5019641;28;20420;-76
2022/06/26 04:15:19;;;;;;;2.60;2.40;;;;;;;19.81;81.46;156455.16;5012929;28;20443;-74
2022/06/26 04:17:46;;;;;;;3.00;2.70;;;;;;;19.84;80.55;156463.00;5026324;28;20472;-74
2022/06/26 04:20:15;;;;;;;2.40;2.17;;;;;;;19.77;80.11;156444.75;5028951;28;21005;-74
2022/06/26 04:22:56;;;;;;;2.20;2.00;;;;;;;19.71;81.48;156429.09;5028705;28;20456;-74
2022/06/26 04:25:23;;;;;;;2.77;2.00;;;;;;;19.71;80.19;156430.41;5010990;28;20464;-73
2022/06/26 04:27:52;;;;;;;2.23;1.67;;;;;;;19.69;79.51;156425.19;5012479;28;20466;-74
2022/06/26 04:30:20;;;;;;;2.20;2.00;;;;;;;19.69;79.48;156423.88;4997091;28;20425;-76
2022/06/26 04:32:46;;;;;;;2.60;2.40;;;;;;;19.65;78.51;156413.44;5010928;28;20445;-74
2022/06/26 04:35:14;;;;;;;2.40;2.20;;;;;;;19.62;78.10;156405.66;5011685;28;20484;-76
2022/06/26 04:37:41;;;;;;;2.50;1.87;;;;;;;19.60;77.50;156400.41;5026354;28;20873;-76
2022/06/26 04:40:10;;;;;;;3.83;1.50;;;;;;;19.62;76.43;156405.66;5012170;28;20460;-76
2022/06/26 04:42:37;;;;;;;1.77;1.43;;;;;;;19.62;76.12;156405.66;5010201;28;21044;-76
2022/06/26 04:45:08;;;;;;;2.67;2.00;;;;;;;19.65;76.61;156413.44;4995320;28;20978;-76
2022/06/26 04:47:35;;;;;;;2.20;2.00;;;;;;;19.67;78.32;156418.69;5011716;28;20441;-73
2022/06/26 04:50:10;;;;;;;2.67;1.93;;;;;;;19.64;79.19;156410.84;5010360;28;20610;-76
2022/06/26 04:52:37;;;;;;;2.63;2.00;;;;;;;19.62;79.76;156405.66;5026498;28;20452;-76
2022/06/26 04:55:05;;;;;;;2.80;2.43;;;;;;;19.60;79.27;156401.72;5012262;28;20947;-76
2022/06/26 04:57:37;;;;;;;3.50;2.20;;;;;;;19.59;79.76;156397.81;5011180;28;20465;-76
2022/06/26 05:00:06;;;;;;;3.07;2.80;;;;;;;19.59;81.19;156397.81;5013087;28;20456;-76
2022/06/26 05:02:35;;;;;;;2.77;2.57;;;;;;;19.64;80.90;156410.84;5008918;28;20551;-76
2022/06/26 05:05:16;;;;;;;2.57;2.37;;;;;;;19.66;80.18;156417.38;5028092;28;20463;-76
2022/06/26 05:07:48;;;;;;;3.87;2.90;;;;;;;19.86;79.38;156468.19;5028841;28;20460;-76
2022/06/26 05:10:15;;;;;;;3.30;3.10;;;;;;;19.77;79.82;156444.75;5028967;28;20483;-76
2022/06/26 05:12:51;;;;;;;2.60;2.40;;;;;;;19.68;79.57;156421.25;5010692;28;20460;-76
2022/06/26 05:15:38;;;;;;;2.60;2.40;;;;;;;19.68;81.61;156421.25;5013045;28;20468;-76
2022/06/26 05:18:07;;;;;;;2.50;2.30;;;;;;;19.70;82.77;156426.47;5010878;28;20579;-76
2022/06/26 05:20:33;;;;;;;3.00;2.80;;;;;;;19.75;83.85;156440.81;4998673;28;20964;-76
2022/06/26 05:23:00;;;;;;;2.90;2.67;;;;;;;19.79;82.65;156449.94;5000837;28;20483;-75
2022/06/26 05:25:27;;;;;;;2.70;2.50;;;;;;;19.82;83.40;156459.09;5013158;28;20440;-75
2022/06/26 05:27:56;;;;;;;3.30;3.00;;;;;;;19.86;82.68;156468.19;5034219;28;20997;-75
2022/06/26 05:30:23;;;;;;;2.50;2.30;;;;;;;19.88;83.24;156473.44;5012273;28;20492;-75
2022/06/26 05:32:51;;;;;;;3.80;2.90;;;;;;;19.83;84.24;156460.41;5012237;28;20460;-75
2022/06/26 05:35:21;;;;;;;3.23;2.77;;;;;;;19.87;85.10;156470.81;5011554;28;20515;-75
2022/06/26 05:37:48;;;;;;;3.67;3.37;;;;;;;19.90;85.29;156479.97;5009865;28;20459;-75
2022/06/26 05:40:15;;;;;;;3.43;3.13;;;;;;;19.97;85.51;156498.19;5010636;28;20494;-75
2022/06/26 05:42:42;;;;;;;6.03;2.67;;;;;;;20.02;85.25;156509.91;4998127;28;20460;-75
2022/06/26 05:45:11;;;;;;;3.57;3.27;;;;;;;19.99;85.33;156503.41;5010182;28;20518;-76
2022/06/26 05:47:38;;;;;;;2.90;2.70;;;;;;;20.02;84.24;156509.91;5010458;28;20465;-76
2022/06/26 05:50:25;;;;;;;3.17;2.93;;;;;;;20.06;84.02;156520.38;5008269;28;20456;-81
2022/06/26 05:53:12;;;;;;;3.00;2.80;;;;;;;20.09;82.93;156528.22;5009200;28;21123;-81
2022/06/26 05:55:57;;;;;;;2.83;2.63;;;;;;;20.16;82.71;156545.13;5007940;28;20452;-81
2022/06/26 05:58:36;;;;;;;2.73;2.53;;;;;;;20.19;85.50;156552.97;4996170;28;20559;-81
2022/06/26 06:01:29;;;;;;;2.80;2.47;;;;;;;20.17;83.58;156549.06;4980589;28;20812;-81
2022/06/26 06:04:04;;;;;;;2.63;2.43;;;;;;;20.17;84.47;156549.06;5010737;28;20954;-81
2022/06/26 06:06:32;;;;;;;3.03;2.73;;;;;;;20.11;82.76;156532.09;5013637;28;20460;-80
2022/06/26 06:09:00;;;;;;;2.40;2.20;;;;;;;20.11;81.59;156532.09;5007471;28;20804;-80
2022/06/26 06:11:27;;;;;;;2.47;2.27;;;;;;;20.15;81.39;156543.81;4994601;28;20456;-80
2022/06/26 06:13:56;;;;;;;3.80;3.07;;;;;;;20.15;83.35;156543.81;5028547;28;20452;-80
2022/06/26 06:16:32;;;;;;;3.40;3.10;;;;;;;20.02;84.65;156509.91;5011979;28;20834;-79
2022/06/26 06:18:59;;;;;;;3.13;2.83;;;;;;;20.07;86.14;156522.94;5011338;28;20476;-79
2022/06/26 06:21:29;;;;;;;4.37;3.50;;;;;;;20.34;84.52;156593.44;5015694;28;20453;-79
2022/06/26 06:24:03;;;;;;;3.40;2.83;;;;;;;20.44;83.72;156619.53;5015688;28;20472;-80
2022/06/26 06:26:30;;;;;;;3.40;3.10;;;;;;;20.58;84.09;156654.75;5031325;28;20515;-82
2022/06/26 06:29:08;;;;;;;2.87;2.63;;;;;;;20.78;81.25;156706.97;5003876;28;20460;-74
2022/06/26 06:31:34;;;;;;;3.77;2.73;;;;;;;21.16;79.96;156804.84;5010843;28;20441;-74
2022/06/26 06:34:02;;;;;;;3.80;2.70;;;;;;;21.79;79.32;156969.31;5009560;28;20461;-74
2022/06/26 06:36:30;;;;;;;3.00;2.70;;;;;;;22.44;76.36;157136.53;5025644;28;20482;-74
2022/06/26 06:38:58;;;;;;;3.17;2.97;;;;;;;22.70;72.92;157203.19;4997491;28;20476;-74
2022/06/26 06:41:26;;;;;;;2.80;2.60;;;;;;;22.98;71.02;157277.66;5009288;28;20456;-74
2022/06/26 06:44:05;;;;;;;3.03;2.83;;;;;;;23.25;69.89;157345.63;5009411;28;20475;-75
2022/06/26 06:46:32;;;;;;;2.47;2.20;;;;;;;23.48;64.27;157405.81;5011579;28;20471;-75
2022/06/26 06:49:08;;;;;;;2.40;2.17;;;;;;;23.82;65.17;157494.72;5011209;28;20443;-74
2022/06/26 06:51:51;;;;;;;2.60;2.40;;;;;;;24.06;61.72;157557.47;5025759;28;20452;-76
2022/06/26 06:54:20;;;;;;;6.07;2.70;;;;;;;24.10;63.45;157567.97;5009405;28;20465;-74
2022/06/26 06:56:49;;;;;;;2.50;2.30;;;;;;;24.34;60.64;157628.13;5025485;28;20816;-77
2022/06/26 06:59:16;;;;;;;2.50;2.30;;;;;;;24.34;58.80;157628.13;5008769;28;20559;-74
2022/06/26 07:01:43;;;;;;;2.40;2.20;;;;;;;24.38;60.94;157638.59;4992910;28;20461;-75
2022/06/26 07:04:10;;;;;;;2.73;2.53;;;;;;;24.50;60.64;157669.97;4992230;28;20979;-74
2022/06/26 07:06:37;;;;;;;2.97;2.70;;;;;;;24.77;59.85;157740.63;5011252;28;20441;-74
2022/06/26 07:09:04;;;;;;;2.90;2.70;;;;;;;25.21;59.01;157855.81;5008847;28;20455;-75
2022/06/26 07:11:31;;;;;;;3.53;2.47;;;;;;;25.26;58.52;157868.88;5008892;28;20449;-75
2022/06/26 07:14:00;;;;;;;3.57;3.27;;;;;;;25.24;58.04;157863.66;4992060;28;21315;-75
2022/06/26 07:16:27;;;;;;;3.33;3.07;;;;;;;25.39;58.01;157902.91;5027034;28;20436;-75
2022/06/26 07:18:53;;;;;;;3.40;3.20;;;;;;;25.61;58.30;157957.94;5010809;28;21148;-75
2022/06/26 07:21:20;;;;;;;3.07;2.77;;;;;;;26.03;57.21;158067.88;5009890;28;20456;-75
2022/06/26 07:23:47;;;;;;;3.00;2.80;;;;;;;26.34;56.17;158149.16;5008156;28;20464;-75
2022/06/26 07:26:22;;;;;;;3.00;2.70;;;;;;;26.57;52.72;158208.06;4996441;28;20448;-75
2022/06/26 07:28:51;;;;;;;3.00;2.80;;;;;;;26.13;55.23;158094.16;5010281;28;20445;-75
2022/06/26 07:31:19;;;;;;;3.57;3.27;;;;;;;26.40;54.44;158164.84;5021037;28;20540;-75
2022/06/26 07:36:34;;;;;;;3.10;2.70;;;;;;;26.98;52.16;158315.53;5009658;28;20479;-82
2022/06/26 07:39:02;;;;;;;3.20;3.00;;;;;;;27.11;51.10;158349.59;4993913;28;20480;-82
2022/06/26 07:41:33;;;;;;;3.23;2.63;;;;;;;27.27;50.81;158390.19;4993999;28;20547;-83
2022/06/26 07:44:01;;;;;;;3.70;3.40;;;;;;;27.61;50.99;158478.09;5025546;28;20464;-75
2022/06/26 07:46:29;;;;;;;3.03;2.83;;;;;;;27.43;51.05;158432.19;5025330;28;20626;-75
2022/06/26 07:48:56;;;;;;;3.77;3.47;;;;;;;27.53;50.42;158457.13;5021272;28;20459;-75
2022/06/26 07:51:23;;;;;;;3.47;3.27;;;;;;;27.46;51.15;158438.75;4991712;28;20547;-75
2022/06/26 07:53:50;;;;;;;3.00;2.80;;;;;;;27.41;52.05;158426.94;5008838;28;20457;-75
2022/06/26 07:56:17;;;;;;;2.80;2.60;;;;;;;27.46;51.02;158440.06;5007204;28;20452;-75
2022/06/26 07:58:44;;;;;;;3.10;2.90;;;;;;;27.62;51.39;158482.00;5017149;28;20473;-75
2022/06/26 08:01:11;;;;;;;2.50;2.30;;;;;;;27.50;51.03;158449.25;5011004;28;20869;-75
2022/06/26 08:03:39;;;;;;;2.87;2.67;;;;;;;27.01;50.37;158323.38;5011246;28;20506;-75
2022/06/26 08:06:06;;;;;;;2.57;2.37;;;;;;;26.86;50.71;158282.78;5009535;28;20539;-75
2022/06/26 08:08:33;;;;;;;2.27;2.17;;;;;;;26.95;49.94;158307.66;5008991;28;20456;-75
2022/06/26 08:10:59;;;;;;;2.67;2.47;;;;;;;26.47;49.83;158183.22;5010466;28;20448;-76
2022/06/26 08:13:26;;;;;;;2.60;2.40;;;;;;;26.66;50.76;158231.69;5014802;28;20851;-75
2022/06/26 08:15:53;;;;;;;3.03;2.73;;;;;;;26.72;51.41;158247.34;5010275;28;20552;-75
2022/06/26 08:18:19;;;;;;;2.90;2.60;;;;;;;26.79;50.35;158264.47;5011348;28;20510;-75
2022/06/26 08:20:47;;;;;;;2.37;2.17;;;;;;;27.30;50.26;158398.06;5014422;28;20575;-75
2022/06/26 08:23:15;;;;;;;3.30;2.50;;;;;;;27.57;48.79;158467.56;5013144;28;20804;-75
2022/06/26 08:25:42;;;;;;;2.97;2.73;;;;;;;27.33;49.05;158405.94;5018351;28;20440;-75
2022/06/26 08:28:09;;;;;;;2.80;2.60;;;;;;;27.86;49.01;158542.28;4998918;28;20818;-75
2022/06/26 08:30:36;;;;;;;2.50;2.30;;;;;;;28.32;47.94;158662.97;5011795;28;20998;-75
2022/06/26 08:33:03;;;;;;;2.97;2.73;;;;;;;27.92;48.46;158558.03;5020953;28;20460;-75
2022/06/26 08:35:30;;;;;;;2.90;2.70;;;;;;;27.90;48.98;158554.13;5029276;28;20582;-75
2022/06/26 08:37:58;;;;;;;2.73;2.30;;;;;;;28.07;47.51;158597.38;5028967;28;20556;-77
2022/06/26 08:40:25;;;;;;;3.17;2.70;;;;;;;28.08;47.23;158601.34;5027906;28;20951;-75
2022/06/26 08:42:53;;;;;;;3.03;2.73;;;;;;;27.66;48.86;158492.50;5019034;28;20443;-77
2022/06/26 08:45:21;;;;;;;2.80;2.60;;;;;;;27.95;48.49;158565.91;5012333;28;20457;-75
2022/06/26 08:47:50;;;;;;;3.00;2.70;;;;;;;28.28;46.79;158652.44;5027858;28;20460;-75
2022/06/26 08:50:19;;;;;;;3.23;3.03;;;;;;;28.03;47.35;158586.91;5014519;28;20468;-75
2022/06/26 08:52:47;;;;;;;2.60;2.40;;;;;;;27.67;47.96;158493.78;5014389;28;20451;-75
2022/06/26 08:55:15;;;;;;;2.40;2.20;;;;;;;27.54;48.62;158459.69;5012795;28;20453;-75
2022/06/26 08:57:42;;;;;;;2.40;2.20;;;;;;;27.57;48.68;158467.56;5010608;28;20443;-75
2022/06/26 09:00:10;;;;;;;4.80;2.17;;;;;;;27.27;48.16;158390.19;5026577;28;20503;-82
2022/06/26 09:02:37;;;;;;;2.60;2.40;;;;;;;27.57;51.70;158468.91;5013703;28;20440;-83
2022/06/26 09:05:04;;;;;;;3.13;2.80;;;;;;;27.82;50.28;158531.81;5004213;28;20482;-82
2022/06/26 09:07:31;;;;;;;2.80;2.60;;;;;;;28.23;47.41;158639.34;5017122;28;20475;-82
2022/06/26 09:09:58;;;;;;;2.00;1.80;;;;;;;28.01;46.56;158582.91;5014530;28;20448;-82
2022/06/26 09:12:35;;;;;;;2.00;1.90;;;;;;;27.31;48.55;158400.69;5014170;28;20421;-82
2022/06/26 09:15:02;;;;;;;2.23;2.03;;;;;;;27.12;48.86;158350.91;5013307;28;20451;-82
2022/06/26 09:17:31;;;;;;;2.13;1.93;;;;;;;27.32;49.70;158403.34;5029213;28;21010;-82
2022/06/26 09:19:58;;;;;;;3.80;2.10;;;;;;;27.50;48.16;158449.25;5011778;28;20819;-82
2022/06/26 09:22:25;;;;;;;2.40;2.20;;;;;;;27.27;49.37;158390.19;5029493;28;20791;-82
2022/06/26 09:24:54;;;;;;;2.13;2.03;;;;;;;27.48;48.16;158445.28;5012161;28;20468;-81
2022/06/26 09:27:21;;;;;;;2.40;2.10;;;;;;;27.39;48.57;158421.69;5028921;28;20448;-81
2022/06/26 09:29:53;;;;;;;1.90;1.80;;;;;;;27.31;48.31;158400.69;5012034;28;20487;-82
2022/06/26 09:32:21;;;;;;;3.90;1.80;;;;;;;27.74;47.94;158513.47;5014674;28;20726;-82
2022/06/26 09:34:50;;;;;;;2.10;1.60;;;;;;;27.57;47.88;158468.91;5028476;28;20464;-82
2022/06/26 09:37:18;;;;;;;2.43;2.00;;;;;;;27.79;48.05;158526.59;5014284;28;20531;-82
2022/06/26 09:39:45;;;;;;;2.27;2.07;;;;;;;27.68;48.27;158497.75;5011973;28;20468;-82
2022/06/26 09:42:17;;;;;;;2.27;2.07;;;;;;;27.84;47.93;158538.38;5012697;28;20433;-83
2022/06/26 09:44:45;;;;;;;2.77;2.57;;;;;;;26.99;49.26;158316.84;5014144;28;20460;-82
2022/06/26 09:47:24;;;;;;;3.03;1.87;;;;;;;26.74;51.75;158251.31;5029420;28;20443;-82
2022/06/26 09:49:53;;;;;;;2.00;1.80;;;;;;;26.53;51.82;158198.91;5012590;28;20458;-84
2022/06/26 09:52:21;;;;;;;2.50;2.30;;;;;;;26.87;49.97;158285.44;5012518;28;20421;-82
2022/06/26 09:54:48;;;;;;;2.00;1.80;;;;;;;26.75;49.18;158255.22;5014709;28;20476;-82
2022/06/26 09:57:15;;;;;;;1.97;1.80;;;;;;;26.85;49.38;158280.16;5026415;28;20810;-84
2022/06/26 09:59:43;;;;;;;2.80;2.47;;;;;;;26.85;48.69;158280.16;5012694;28;20484;-84
2022/06/26 10:07:46;;;;;;;2.50;2.30;;;;;;;26.94;49.54;158305.06;5023104;28;20950;-81
2022/06/26 10:10:13;;;;;;;2.10;2.00;;;;;;;26.63;50.05;158222.50;5014097;28;20464;-81
2022/06/26 10:12:40;;;;;;;2.40;2.20;;;;;;;26.42;50.56;158170.06;5026026;28;20476;-81
2022/06/26 10:15:10;;;;;;;3.17;2.40;;;;;;;25.99;50.67;158057.44;5027466;28;20460;-82
2022/06/26 10:18:00;;;;;;;2.27;2.07;;;;;;;26.69;51.22;158238.22;5028548;28;20457;-82
2022/06/26 10:20:29;;;;;;;2.40;2.20;;;;;;;26.44;49.23;158175.34;5021192;28;20599;-81
2022/06/26 10:22:56;;;;;;;1.93;1.80;;;;;;;26.36;51.37;158153.06;5009725;28;20453;-81
2022/06/26 10:25:24;;;;;;;2.50;2.30;;;;;;;26.61;50.13;158219.84;5004819;28;20453;-82
2022/06/26 10:27:51;;;;;;;1.90;1.80;;;;;;;26.70;50.60;158242.13;4999399;28;20546;-82
2022/06/26 10:30:19;;;;;;;2.37;2.17;;;;;;;26.76;51.26;158256.53;4994017;28;20886;-82
2022/06/26 10:32:46;;;;;;;2.30;2.10;;;;;;;26.08;50.69;158080.97;4996841;28;20453;-82
2022/06/26 10:35:15;;;;;;;2.40;2.20;;;;;;;26.12;52.01;158091.47;5008967;28;20491;-82
2022/06/26 10:37:47;;;;;;;2.10;1.90;;;;;;;26.37;51.22;158156.97;5010590;28;20452;-82
2022/06/26 10:42:52;;;;;;;2.30;2.10;;;;;;;26.16;51.47;158100.72;5012306;28;20801;-81
2022/06/26 10:43:06;;;;;;;2.50;2.30;;;;;;;26.09;50.70;158082.28;5025392;28;20468;-83
2022/06/26 10:45:36;;;;;;;1.83;1.60;;;;;;;26.33;50.90;158146.53;5011245;28;20524;-82
2022/06/26 10:48:05;;;;;;;2.00;1.90;;;;;;;26.33;51.12;158146.53;5007147;28;20457;-82
2022/06/26 10:50:34;;;;;;;3.27;2.50;;;;;;;26.41;51.32;158167.47;5007503;28;20519;-82
2022/06/26 10:53:18;;;;;;;2.33;1.97;;;;;;;26.30;50.80;158137.34;5025312;28;20497;-82
2022/06/26 10:55:48;;;;;;;2.30;2.10;;;;;;;25.84;50.99;158018.19;5010558;28;20539;-82
2022/06/26 10:58:27;;;;;;;2.10;1.83;;;;;;;25.76;51.34;157997.22;4993072;28;20464;-82
2022/06/26 11:00:58;;;;;;;5.10;2.10;;;;;;;25.96;51.53;158050.91;5008166;28;20468;-83
2022/06/26 11:03:25;;;;;;;2.30;2.20;;;;;;;25.99;52.08;158057.44;5026581;28;20456;-83
2022/06/26 11:05:53;;;;;;;2.17;2.07;;;;;;;25.79;52.17;158005.03;5012014;28;20480;-83
2022/06/26 11:08:27;;;;;;;2.00;1.90;;;;;;;25.80;52.63;158007.69;5010560;28;20552;-84
2022/06/26 11:10:59;;;;;;;1.70;1.60;;;;;;;25.82;52.61;158014.22;5017321;28;20453;-82
2022/06/26 11:13:27;;;;;;;2.40;2.20;;;;;;;25.82;53.26;158014.22;5002878;28;20563;-83
2022/06/26 11:15:57;;;;;;;2.40;1.97;;;;;;;26.00;52.14;158060.03;5012664;28;20462;-83
2022/06/26 11:18:24;;;;;;;1.93;1.83;;;;;;;26.03;51.57;158067.88;5008560;28;20474;-84
2022/06/26 11:20:55;;;;;;;1.77;1.67;;;;;;;26.09;52.33;158083.63;5027905;28;20472;-83
2022/06/26 11:23:25;;;;;;;2.30;2.10;;;;;;;25.73;52.67;157990.69;5008705;28;21021;-83
2022/06/26 11:25:56;;;;;;;1.93;1.73;;;;;;;25.56;52.86;157946.16;5012151;28;20859;-83
2022/06/26 11:28:28;;;;;;;2.30;2.10;;;;;;;25.66;52.46;157972.34;4997834;28;20446;-83
2022/06/26 11:30:56;;;;;;;1.87;1.73;;;;;;;25.74;52.65;157991.97;5009286;28;20970;-83
2022/06/26 11:33:25;;;;;;;2.27;2.07;;;;;;;25.79;53.23;158005.03;5011183;28;20514;-83
2022/06/26 11:35:52;;;;;;;2.57;2.03;;;;;;;25.70;53.60;157982.81;5012631;28;20463;-83
2022/06/26 11:38:19;;;;;;;1.90;1.80;;;;;;;25.88;54.15;158028.63;5011601;28;20471;-83
2022/06/26 11:40:48;;;;;;;1.90;1.80;;;;;;;25.80;53.24;158009.00;5027346;28;20473;-83
2022/06/26 11:43:16;;;;;;;2.20;2.00;;;;;;;25.93;52.96;158041.72;5012453;28;20511;-83